sensor_id;sensor_type;location;lat;lon;timestamp;pressure;altitude;pressure_sealevel;temperature;humidity
29839;BME280;18669;53.356;-1.464;2023-01-01T00:01:15;98783.16;;;8.91;100.00
29839;BME280;18669;53.356;-1.464;2023-01-01T00:03:41;98792.34;;;8.81;100.00
29839;BME280;18669;53.356;-1.464;2023-01-01T00:06:09;98796.41;;;8.88;100.00
29839;BME280;18669;53.356;-1.464;2023-01-01T00:08:36;98788.47;;;8.90;100.00
29839;BME280;18669;53.356;-1.464;2023-01-01T00:11:04;98796.34;;;8.90;100.00
29839;BME280;18669;53.356;-1.464;2023-01-01T00:13:30;98790.44;;;8.85;100.00
29839;BME280;18669;53.356;-1.464;2023-01-01T00:16:03;98787.38;;;8.95;100.00
29839;BME280;18669;53.356;-1.464;2023-01-01T00:18:29;98787.09;;;8.81;100.00
29839;BME280;18669;53.356;-1.464;2023-01-01T00:21:08;98782.16;;;8.94;100.00
29839;BME280;18669;53.356;-1.464;2023-01-01T00:23:35;98785.53;;;8.77;100.00
29839;BME280;18669;53.356;-1.464;2023-01-01T00:26:01;98777.53;;;8.80;100.00
29839;BME280;18669;53.356;-1.464;2023-01-01T00:28:33;98769.63;;;8.82;100.00
29839;BME280;18669;53.356;-1.464;2023-01-01T00:30:59;98766.81;;;8.85;100.00
29839;BME280;18669;53.356;-1.464;2023-01-01T00:33:25;98768.41;;;8.89;100.00
29839;BME280;18669;53.356;-1.464;2023-01-01T00:35:51;98757.91;;;8.89;100.00
29839;BME280;18669;53.356;-1.464;2023-01-01T00:38:17;98757.66;;;8.95;100.00
29839;BME280;18669;53.356;-1.464;2023-01-01T00:40:43;98747.16;;;8.95;100.00
29839;BME280;18669;53.356;-1.464;2023-01-01T00:43:09;98748.66;;;9.20;100.00
29839;BME280;18669;53.356;-1.464;2023-01-01T00:45:35;98758.16;;;9.03;100.00
29839;BME280;18669;53.356;-1.464;2023-01-01T00:48:01;98746.88;;;9.01;100.00
29839;BME280;18669;53.356;-1.464;2023-01-01T00:50:29;98755.75;;;8.99;100.00
29839;BME280;18669;53.356;-1.464;2023-01-01T00:52:57;98754.06;;;8.98;100.00
29839;BME280;18669;53.356;-1.464;2023-01-01T00:55:23;98752.41;;;8.95;100.00
29839;BME280;18669;53.356;-1.464;2023-01-01T00:57:49;98752.06;;;9.03;100.00
29839;BME280;18669;53.356;-1.464;2023-01-01T01:00:15;98741.94;;;9.14;100.00
29839;BME280;18669;53.356;-1.464;2023-01-01T01:03:00;98739.97;;;9.19;100.00
29839;BME280;18669;53.356;-1.464;2023-01-01T01:05:26;98746.00;;;9.21;100.00
29839;BME280;18669;53.356;-1.464;2023-01-01T01:07:52;98738.63;;;9.30;100.00
29839;BME280;18669;53.356;-1.464;2023-01-01T01:10:19;98752.31;;;9.36;100.00
29839;BME280;18669;53.356;-1.464;2023-01-01T01:12:47;98776.63;;;9.40;100.00
29839;BME280;18669;53.356;-1.464;2023-01-01T01:15:13;98756.41;;;9.42;100.00
29839;BME280;18669;53.356;-1.464;2023-01-01T01:17:39;98779.13;;;9.62;100.00
29839;BME280;18669;53.356;-1.464;2023-01-01T01:20:07;98783.41;;;9.46;100.00
29839;BME280;18669;53.356;-1.464;2023-01-01T01:22:33;98788.00;;;9.40;100.00
29839;BME280;18669;53.356;-1.464;2023-01-01T01:25:00;98789.31;;;9.30;100.00
29839;BME280;18669;53.356;-1.464;2023-01-01T01:27:26;98807.16;;;9.43;100.00
29839;BME280;18669;53.356;-1.464;2023-01-01T01:29:52;98804.78;;;9.17;100.00
29839;BME280;18669;53.356;-1.464;2023-01-01T01:32:19;98800.22;;;9.21;100.00
29839;BME280;18669;53.356;-1.464;2023-01-01T01:34:46;98811.84;;;9.15;100.00
29839;BME280;18669;53.356;-1.464;2023-01-01T01:37:13;98837.97;;;9.18;100.00
29839;BME280;18669;53.356;-1.464;2023-01-01T01:39:39;98832.78;;;9.17;100.00
29839;BME280;18669;53.356;-1.464;2023-01-01T01:42:06;98846.09;;;9.12;100.00
29839;BME280;18669;53.356;-1.464;2023-01-01T01:47:20;98845.13;;;9.15;100.00
29839;BME280;18669;53.356;-1.464;2023-01-01T01:49:51;98851.56;;;9.07;100.00
29839;BME280;18669;53.356;-1.464;2023-01-01T01:52:20;98858.06;;;8.99;100.00
29839;BME280;18669;53.356;-1.464;2023-01-01T01:54:47;98868.53;;;8.99;100.00
29839;BME280;18669;53.356;-1.464;2023-01-01T01:57:13;98870.38;;;8.97;100.00
29839;BME280;18669;53.356;-1.464;2023-01-01T01:59:42;98880.59;;;9.03;100.00
29839;BME280;18669;53.356;-1.464;2023-01-01T02:02:17;98865.50;;;9.08;100.00
29839;BME280;18669;53.356;-1.464;2023-01-01T02:04:47;98856.84;;;8.85;100.00
29839;BME280;18669;53.356;-1.464;2023-01-01T02:07:14;98864.84;;;8.82;100.00
29839;BME280;18669;53.356;-1.464;2023-01-01T02:09:41;98878.28;;;8.74;100.00
29839;BME280;18669;53.356;-1.464;2023-01-01T02:12:07;98878.22;;;8.76;100.00
29839;BME280;18669;53.356;-1.464;2023-01-01T02:14:33;98890.22;;;8.82;100.00
29839;BME280;18669;53.356;-1.464;2023-01-01T02:17:08;98874.22;;;8.88;100.00
29839;BME280;18669;53.356;-1.464;2023-01-01T02:22:24;98888.63;;;9.00;100.00
29839;BME280;18669;53.356;-1.464;2023-01-01T02:25:10;98883.50;;;8.97;100.00
29839;BME280;18669;53.356;-1.464;2023-01-01T02:28:04;98891.28;;;8.98;100.00
29839;BME280;18669;53.356;-1.464;2023-01-01T02:30:38;98909.88;;;8.92;100.00
29839;BME280;18669;53.356;-1.464;2023-01-01T02:33:10;98906.31;;;8.94;100.00
29839;BME280;18669;53.356;-1.464;2023-01-01T02:35:42;98909.88;;;8.92;100.00
29839;BME280;18669;53.356;-1.464;2023-01-01T02:38:19;98898.34;;;8.96;100.00
29839;BME280;18669;53.356;-1.464;2023-01-01T02:40:48;98914.97;;;8.97;100.00
29839;BME280;18669;53.356;-1.464;2023-01-01T02:43:16;98917.97;;;8.87;100.00
29839;BME280;18669;53.356;-1.464;2023-01-01T02:45:42;98923.22;;;8.87;100.00
29839;BME280;18669;53.356;-1.464;2023-01-01T02:50:55;98939.38;;;8.99;100.00
29839;BME280;18669;53.356;-1.464;2023-01-01T02:53:30;98948.16;;;8.98;100.00
29839;BME280;18669;53.356;-1.464;2023-01-01T02:58:46;98951.84;;;8.92;100.00
29839;BME280;18669;53.356;-1.464;2023-01-01T03:01:39;98940.56;;;8.90;100.00
29839;BME280;18669;53.356;-1.464;2023-01-01T03:04:24;98955.38;;;8.91;100.00
29839;BME280;18669;53.356;-1.464;2023-01-01T03:07:15;98959.47;;;8.98;100.00
29839;BME280;18669;53.356;-1.464;2023-01-01T03:09:55;98959.72;;;8.92;100.00
29839;BME280;18669;53.356;-1.464;2023-01-01T03:12:42;98966.50;;;8.98;100.00
29839;BME280;18669;53.356;-1.464;2023-01-01T03:15:18;98973.94;;;8.86;100.00
29839;BME280;18669;53.356;-1.464;2023-01-01T03:18:04;98980.41;;;9.00;100.00
29839;BME280;18669;53.356;-1.464;2023-01-01T03:20:34;98988.69;;;8.89;100.00
29839;BME280;18669;53.356;-1.464;2023-01-01T03:23:07;98976.75;;;8.82;100.00
29839;BME280;18669;53.356;-1.464;2023-01-01T03:25:44;98983.88;;;8.78;100.00
29839;BME280;18669;53.356;-1.464;2023-01-01T03:28:18;98990.34;;;8.69;100.00
29839;BME280;18669;53.356;-1.464;2023-01-01T03:30:46;99008.34;;;8.56;100.00
29839;BME280;18669;53.356;-1.464;2023-01-01T03:33:29;98992.38;;;8.62;100.00
29839;BME280;18669;53.356;-1.464;2023-01-01T03:36:11;98989.56;;;8.67;100.00
29839;BME280;18669;53.356;-1.464;2023-01-01T03:38:51;98986.13;;;8.65;100.00
29839;BME280;18669;53.356;-1.464;2023-01-01T03:41:31;98984.84;;;8.53;100.00
29839;BME280;18669;53.356;-1.464;2023-01-01T03:46:54;99006.66;;;8.30;100.00
29839;BME280;18669;53.356;-1.464;2023-01-01T03:49:21;98997.81;;;8.32;100.00
29839;BME280;18669;53.356;-1.464;2023-01-01T03:55:28;98993.75;;;8.49;100.00
29839;BME280;18669;53.356;-1.464;2023-01-01T03:58:20;99008.72;;;8.45;100.00
29839;BME280;18669;53.356;-1.464;2023-01-01T04:00:53;99016.81;;;8.39;100.00
29839;BME280;18669;53.356;-1.464;2023-01-01T04:03:28;99011.34;;;8.45;100.00
29839;BME280;18669;53.356;-1.464;2023-01-01T04:05:55;99017.94;;;8.32;100.00
29839;BME280;18669;53.356;-1.464;2023-01-01T04:08:22;99025.91;;;8.29;100.00
29839;BME280;18669;53.356;-1.464;2023-01-01T04:10:55;99028.13;;;8.40;100.00
29839;BME280;18669;53.356;-1.464;2023-01-01T04:13:22;99036.69;;;8.21;100.00
29839;BME280;18669;53.356;-1.464;2023-01-01T04:15:49;99038.03;;;8.31;100.00
29839;BME280;18669;53.356;-1.464;2023-01-01T04:18:15;99039.91;;;8.28;100.00
29839;BME280;18669;53.356;-1.464;2023-01-01T04:20:42;99041.56;;;8.30;100.00
29839;BME280;18669;53.356;-1.464;2023-01-01T04:23:08;99072.34;;;8.25;100.00
29839;BME280;18669;53.356;-1.464;2023-01-01T04:25:34;99054.72;;;8.29;100.00
29839;BME280;18669;53.356;-1.464;2023-01-01T04:28:03;99049.56;;;8.27;100.00
29839;BME280;18669;53.356;-1.464;2023-01-01T04:30:29;99055.09;;;8.43;100.00
29839;BME280;18669;53.356;-1.464;2023-01-01T04:32:55;99060.31;;;8.19;100.00
29839;BME280;18669;53.356;-1.464;2023-01-01T04:35:22;99067.31;;;8.19;100.00
29839;BME280;18669;53.356;-1.464;2023-01-01T04:37:48;99049.88;;;8.18;100.00
29839;BME280;18669;53.356;-1.464;2023-01-01T04:40:14;99045.66;;;8.14;100.00
29839;BME280;18669;53.356;-1.464;2023-01-01T04:42:40;99055.59;;;8.29;100.00
29839;BME280;18669;53.356;-1.464;2023-01-01T04:45:07;99044.88;;;8.12;100.00
29839;BME280;18669;53.356;-1.464;2023-01-01T04:47:33;99049.41;;;8.06;100.00
29839;BME280;18669;53.356;-1.464;2023-01-01T04:49:59;99059.09;;;8.04;100.00
29839;BME280;18669;53.356;-1.464;2023-01-01T04:52:26;99060.16;;;7.99;100.00
29839;BME280;18669;53.356;-1.464;2023-01-01T04:54:51;99064.06;;;8.12;100.00
29839;BME280;18669;53.356;-1.464;2023-01-01T04:57:17;99067.53;;;7.87;100.00
29839;BME280;18669;53.356;-1.464;2023-01-01T04:59:44;99068.34;;;7.89;100.00
29839;BME280;18669;53.356;-1.464;2023-01-01T05:02:10;99064.81;;;7.90;100.00
29839;BME280;18669;53.356;-1.464;2023-01-01T05:04:36;99062.19;;;7.90;100.00
29839;BME280;18669;53.356;-1.464;2023-01-01T05:07:02;99069.25;;;7.88;100.00
29839;BME280;18669;53.356;-1.464;2023-01-01T05:09:28;99076.38;;;7.85;100.00
29839;BME280;18669;53.356;-1.464;2023-01-01T05:11:54;99077.38;;;7.81;100.00
29839;BME280;18669;53.356;-1.464;2023-01-01T05:14:20;99095.81;;;7.78;100.00
29839;BME280;18669;53.356;-1.464;2023-01-01T05:16:46;99104.47;;;7.80;100.00
29839;BME280;18669;53.356;-1.464;2023-01-01T05:19:12;99103.56;;;8.06;100.00
29839;BME280;18669;53.356;-1.464;2023-01-01T05:21:39;99096.34;;;7.87;100.00
29839;BME280;18669;53.356;-1.464;2023-01-01T05:24:07;99100.63;;;7.90;100.00
29839;BME280;18669;53.356;-1.464;2023-01-01T05:26:37;99108.38;;;7.93;100.00
29839;BME280;18669;53.356;-1.464;2023-01-01T05:29:03;99107.09;;;7.80;100.00
29839;BME280;18669;53.356;-1.464;2023-01-01T05:31:33;99121.69;;;7.87;100.00
29839;BME280;18669;53.356;-1.464;2023-01-01T05:34:00;99110.78;;;7.74;100.00
29839;BME280;18669;53.356;-1.464;2023-01-01T05:36:29;99126.84;;;7.88;100.00
29839;BME280;18669;53.356;-1.464;2023-01-01T05:38:55;99116.75;;;7.78;100.00
29839;BME280;18669;53.356;-1.464;2023-01-01T05:41:22;99127.06;;;7.82;100.00
29839;BME280;18669;53.356;-1.464;2023-01-01T05:43:49;99113.03;;;7.85;100.00
29839;BME280;18669;53.356;-1.464;2023-01-01T05:46:18;99118.97;;;7.90;100.00
29839;BME280;18669;53.356;-1.464;2023-01-01T05:48:45;99117.50;;;7.81;100.00
29839;BME280;18669;53.356;-1.464;2023-01-01T05:51:16;99131.19;;;7.89;100.00
29839;BME280;18669;53.356;-1.464;2023-01-01T05:53:42;99132.56;;;7.74;100.00
29839;BME280;18669;53.356;-1.464;2023-01-01T05:56:12;99122.78;;;7.80;100.00
29839;BME280;18669;53.356;-1.464;2023-01-01T05:58:39;99144.53;;;7.82;100.00
29839;BME280;18669;53.356;-1.464;2023-01-01T06:01:09;99144.38;;;7.86;100.00
29839;BME280;18669;53.356;-1.464;2023-01-01T06:03:36;99142.22;;;7.72;100.00
29839;BME280;18669;53.356;-1.464;2023-01-01T06:06:06;99147.16;;;7.82;100.00
29839;BME280;18669;53.356;-1.464;2023-01-01T06:08:33;99165.59;;;7.79;100.00
29839;BME280;18669;53.356;-1.464;2023-01-01T06:11:01;99162.72;;;7.86;100.00
29839;BME280;18669;53.356;-1.464;2023-01-01T06:13:29;99172.56;;;7.78;100.00
29839;BME280;18669;53.356;-1.464;2023-01-01T06:15:55;99163.81;;;7.79;100.00
29839;BME280;18669;53.356;-1.464;2023-01-01T06:18:24;99177.72;;;7.81;100.00
29839;BME280;18669;53.356;-1.464;2023-01-01T06:20:51;99163.88;;;7.78;100.00
29839;BME280;18669;53.356;-1.464;2023-01-01T06:23:17;99163.72;;;7.82;100.00
29839;BME280;18669;53.356;-1.464;2023-01-01T06:25:43;99176.66;;;7.87;100.00
29839;BME280;18669;53.356;-1.464;2023-01-01T06:28:11;99180.94;;;7.89;100.00
29839;BME280;18669;53.356;-1.464;2023-01-01T06:30:37;99186.94;;;7.93;100.00
29839;BME280;18669;53.356;-1.464;2023-01-01T06:33:04;99193.72;;;7.99;100.00
29839;BME280;18669;53.356;-1.464;2023-01-01T06:35:30;99207.09;;;7.91;100.00
29839;BME280;18669;53.356;-1.464;2023-01-01T06:37:59;99203.91;;;8.08;100.00
29839;BME280;18669;53.356;-1.464;2023-01-01T06:40:25;99214.59;;;8.02;100.00
29839;BME280;18669;53.356;-1.464;2023-01-01T06:42:51;99216.19;;;8.06;100.00
29839;BME280;18669;53.356;-1.464;2023-01-01T06:45:17;99222.19;;;8.10;100.00
29839;BME280;18669;53.356;-1.464;2023-01-01T06:47:43;99223.78;;;8.14;100.00
29839;BME280;18669;53.356;-1.464;2023-01-01T06:50:09;99213.22;;;8.17;100.00
29839;BME280;18669;53.356;-1.464;2023-01-01T06:52:35;99216.72;;;8.43;100.00
29839;BME280;18669;53.356;-1.464;2023-01-01T06:55:01;99228.06;;;8.16;100.00
29839;BME280;18669;53.356;-1.464;2023-01-01T06:57:28;99240.59;;;8.08;100.00
29839;BME280;18669;53.356;-1.464;2023-01-01T06:59:54;99235.19;;;8.13;100.00
29839;BME280;18669;53.356;-1.464;2023-01-01T07:02:20;99238.06;;;8.05;100.00
29839;BME280;18669;53.356;-1.464;2023-01-01T07:04:46;99230.34;;;8.00;100.00
29839;BME280;18669;53.356;-1.464;2023-01-01T07:07:12;99232.00;;;8.03;100.00
29839;BME280;18669;53.356;-1.464;2023-01-01T07:09:39;99234.66;;;8.01;100.00
29839;BME280;18669;53.356;-1.464;2023-01-01T07:12:06;99240.81;;;8.00;100.00
29839;BME280;18669;53.356;-1.464;2023-01-01T07:14:31;99237.88;;;8.11;100.00
29839;BME280;18669;53.356;-1.464;2023-01-01T07:16:57;99250.44;;;8.00;100.00
29839;BME280;18669;53.356;-1.464;2023-01-01T07:19:24;99255.78;;;7.97;100.00
29839;BME280;18669;53.356;-1.464;2023-01-01T07:21:52;99275.66;;;8.02;100.00
29839;BME280;18669;53.356;-1.464;2023-01-01T07:24:19;99257.31;;;8.04;100.00
29839;BME280;18669;53.356;-1.464;2023-01-01T07:26:46;99263.34;;;8.06;100.00
29839;BME280;18669;53.356;-1.464;2023-01-01T07:29:12;99287.06;;;8.01;100.00
29839;BME280;18669;53.356;-1.464;2023-01-01T07:31:40;99280.97;;;8.01;100.00
29839;BME280;18669;53.356;-1.464;2023-01-01T07:34:10;99284.03;;;7.87;100.00
29839;BME280;18669;53.356;-1.464;2023-01-01T07:36:37;99287.25;;;7.67;100.00
29839;BME280;18669;53.356;-1.464;2023-01-01T07:39:06;99280.56;;;7.56;100.00
29839;BME280;18669;53.356;-1.464;2023-01-01T07:41:32;99280.00;;;7.46;100.00
29839;BME280;18669;53.356;-1.464;2023-01-01T07:43:58;99291.50;;;7.41;100.00
29839;BME280;18669;53.356;-1.464;2023-01-01T07:46:25;99276.81;;;7.37;100.00
29839;BME280;18669;53.356;-1.464;2023-01-01T07:48:51;99286.53;;;7.31;100.00
29839;BME280;18669;53.356;-1.464;2023-01-01T07:51:17;99297.00;;;7.31;100.00
29839;BME280;18669;53.356;-1.464;2023-01-01T07:53:43;99305.59;;;7.35;100.00
29839;BME280;18669;53.356;-1.464;2023-01-01T07:56:09;99323.81;;;7.40;100.00
29839;BME280;18669;53.356;-1.464;2023-01-01T07:58:39;99323.19;;;7.60;100.00
29839;BME280;18669;53.356;-1.464;2023-01-01T08:01:05;99329.66;;;7.48;100.00
29839;BME280;18669;53.356;-1.464;2023-01-01T08:03:31;99347.81;;;7.54;100.00
29839;BME280;18669;53.356;-1.464;2023-01-01T08:05:57;99332.00;;;7.59;100.00
29839;BME280;18669;53.356;-1.464;2023-01-01T08:08:23;99339.69;;;7.64;100.00
29839;BME280;18669;53.356;-1.464;2023-01-01T08:10:49;99349.22;;;7.66;100.00
29839;BME280;18669;53.356;-1.464;2023-01-01T08:13:15;99331.75;;;7.67;100.00
29839;BME280;18669;53.356;-1.464;2023-01-01T08:15:42;99337.84;;;7.67;100.00
29839;BME280;18669;53.356;-1.464;2023-01-01T08:18:08;99331.75;;;7.67;100.00
29839;BME280;18669;53.356;-1.464;2023-01-01T08:20:34;99351.50;;;7.77;100.00
29839;BME280;18669;53.356;-1.464;2023-01-01T08:23:01;99349.19;;;7.68;100.00
29839;BME280;18669;53.356;-1.464;2023-01-01T08:25:27;99343.16;;;7.64;100.00
29839;BME280;18669;53.356;-1.464;2023-01-01T08:27:53;99333.72;;;7.58;100.00
29839;BME280;18669;53.356;-1.464;2023-01-01T08:30:19;99348.44;;;7.63;100.00
29839;BME280;18669;53.356;-1.464;2023-01-01T08:32:45;99346.81;;;7.58;100.00
29839;BME280;18669;53.356;-1.464;2023-01-01T08:35:13;99337.44;;;7.51;100.00
29839;BME280;18669;53.356;-1.464;2023-01-01T08:37:39;99355.75;;;7.51;100.00
29839;BME280;18669;53.356;-1.464;2023-01-01T08:40:05;99363.56;;;7.53;100.00
29839;BME280;18669;53.356;-1.464;2023-01-01T08:42:31;99363.56;;;7.53;100.00
29839;BME280;18669;53.356;-1.464;2023-01-01T08:44:57;99357.44;;;7.54;100.00
29839;BME280;18669;53.356;-1.464;2023-01-01T08:47:24;99361.22;;;7.73;100.00
29839;BME280;18669;53.356;-1.464;2023-01-01T08:49:51;99382.41;;;7.66;100.00
29839;BME280;18669;53.356;-1.464;2023-01-01T08:52:18;99375.28;;;7.71;100.00
29839;BME280;18669;53.356;-1.464;2023-01-01T08:54:44;99380.44;;;7.72;100.00
29839;BME280;18669;53.356;-1.464;2023-01-01T08:57:10;99379.94;;;7.89;100.00
29839;BME280;18669;53.356;-1.464;2023-01-01T08:59:36;99385.53;;;7.77;100.00
29839;BME280;18669;53.356;-1.464;2023-01-01T09:02:03;99373.97;;;7.86;100.00
29839;BME280;18669;53.356;-1.464;2023-01-01T09:04:29;99382.00;;;7.78;100.00
29839;BME280;18669;53.356;-1.464;2023-01-01T09:06:55;99387.06;;;7.86;100.00
29839;BME280;18669;53.356;-1.464;2023-01-01T09:09:21;99394.66;;;7.94;100.00
29839;BME280;18669;53.356;-1.464;2023-01-01T09:11:52;99396.06;;;8.05;100.00
29839;BME280;18669;53.356;-1.464;2023-01-01T09:14:19;99397.03;;;8.03;100.00
29839;BME280;18669;53.356;-1.464;2023-01-01T09:16:45;99390.88;;;8.04;100.00
29839;BME280;18669;53.356;-1.464;2023-01-01T09:19:12;99393.97;;;8.17;100.00
29839;BME280;18669;53.356;-1.464;2023-01-01T09:21:38;99378.09;;;8.21;100.00
29839;BME280;18669;53.356;-1.464;2023-01-01T09:24:07;99382.53;;;8.19;100.00
29839;BME280;18669;53.356;-1.464;2023-01-01T09:26:34;99384.31;;;8.19;100.00
29839;BME280;18669;53.356;-1.464;2023-01-01T09:29:00;99388.66;;;8.20;100.00
29839;BME280;18669;53.356;-1.464;2023-01-01T09:31:26;99383.25;;;8.25;100.00
29839;BME280;18669;53.356;-1.464;2023-01-01T09:33:52;99392.50;;;8.36;100.00
29839;BME280;18669;53.356;-1.464;2023-01-01T09:38:50;99411.56;;;8.70;100.00
29839;BME280;18669;53.356;-1.464;2023-01-01T09:46:59;99392.09;;;9.30;100.00
29839;BME280;18669;53.356;-1.464;2023-01-01T09:49:39;99408.88;;;9.49;100.00
29839;BME280;18669;53.356;-1.464;2023-01-01T09:52:11;99421.84;;;9.54;100.00
29839;BME280;18669;53.356;-1.464;2023-01-01T09:54:58;99431.22;;;9.61;100.00
29839;BME280;18669;53.356;-1.464;2023-01-01T09:57:27;99413.13;;;9.77;100.00
29839;BME280;18669;53.356;-1.464;2023-01-01T09:59:55;99417.81;;;9.69;100.00
29839;BME280;18669;53.356;-1.464;2023-01-01T10:08:18;99441.69;;;9.63;100.00
29839;BME280;18669;53.356;-1.464;2023-01-01T10:10:55;99431.69;;;9.49;100.00
29839;BME280;18669;53.356;-1.464;2023-01-01T10:13:33;99444.25;;;9.39;100.00
29839;BME280;18669;53.356;-1.464;2023-01-01T10:16:09;99455.94;;;9.30;100.00
29839;BME280;18669;53.356;-1.464;2023-01-01T10:18:37;99471.91;;;8.97;100.00
29839;BME280;18669;53.356;-1.464;2023-01-01T10:21:26;99479.16;;;8.89;100.00
29839;BME280;18669;53.356;-1.464;2023-01-01T10:23:57;99492.84;;;8.70;100.00
29839;BME280;18669;53.356;-1.464;2023-01-01T10:26:26;99507.97;;;8.62;100.00
29839;BME280;18669;53.356;-1.464;2023-01-01T10:29:14;99521.03;;;8.63;100.00
29839;BME280;18669;53.356;-1.464;2023-01-01T10:31:44;99514.28;;;8.55;100.00
29839;BME280;18669;53.356;-1.464;2023-01-01T10:34:26;99508.97;;;8.58;100.00
29839;BME280;18669;53.356;-1.464;2023-01-01T10:36:55;99507.22;;;8.58;100.00
29839;BME280;18669;53.356;-1.464;2023-01-01T10:39:22;99502.09;;;8.54;100.00
29839;BME280;18669;53.356;-1.464;2023-01-01T10:41:49;99502.06;;;8.55;100.00
29839;BME280;18669;53.356;-1.464;2023-01-01T10:44:34;99490.06;;;8.46;100.00
29839;BME280;18669;53.356;-1.464;2023-01-01T10:47:27;99510.13;;;8.47;100.00
29839;BME280;18669;53.356;-1.464;2023-01-01T10:49:57;99523.34;;;8.43;100.00
29839;BME280;18669;53.356;-1.464;2023-01-01T10:52:27;99516.38;;;8.42;100.00
29839;BME280;18669;53.356;-1.464;2023-01-01T10:54:57;99524.56;;;8.31;100.00
29839;BME280;18669;53.356;-1.464;2023-01-01T10:59:53;99506.72;;;8.44;100.00
29839;BME280;18669;53.356;-1.464;2023-01-01T11:04:48;99484.22;;;8.66;100.00
29839;BME280;18669;53.356;-1.464;2023-01-01T11:07:27;99478.50;;;8.82;100.00
29839;BME280;18669;53.356;-1.464;2023-01-01T11:10:00;99487.06;;;8.87;100.00
29839;BME280;18669;53.356;-1.464;2023-01-01T11:12:34;99489.63;;;8.89;100.00
29839;BME280;18669;53.356;-1.464;2023-01-01T11:15:00;99492.56;;;8.79;100.00
29839;BME280;18669;53.356;-1.464;2023-01-01T11:17:32;99498.56;;;8.83;100.00
29839;BME280;18669;53.356;-1.464;2023-01-01T11:20:00;99483.94;;;8.76;100.00
29839;BME280;18669;53.356;-1.464;2023-01-01T11:22:44;99492.34;;;8.86;100.00
29839;BME280;18669;53.356;-1.464;2023-01-01T11:25:27;99507.53;;;8.76;100.00
29839;BME280;18669;53.356;-1.464;2023-01-01T11:28:21;99523.66;;;8.63;100.00
29839;BME280;18669;53.356;-1.464;2023-01-01T11:31:20;99524.75;;;8.56;100.00
29839;BME280;18669;53.356;-1.464;2023-01-01T11:33:53;99517.88;;;8.52;100.00
29839;BME280;18669;53.356;-1.464;2023-01-01T11:36:26;99513.59;;;8.48;100.00
29839;BME280;18669;53.356;-1.464;2023-01-01T11:39:25;99466.28;;;8.53;100.00
29839;BME280;18669;53.356;-1.464;2023-01-01T11:41:59;99483.72;;;8.55;100.00
29839;BME280;18669;53.356;-1.464;2023-01-01T11:44:36;99496.91;;;8.52;100.00
29839;BME280;18669;53.356;-1.464;2023-01-01T11:47:05;99508.34;;;8.48;100.00
29839;BME280;18669;53.356;-1.464;2023-01-01T11:49:32;99508.22;;;8.53;100.00
29839;BME280;18669;53.356;-1.464;2023-01-01T11:51:59;99509.25;;;8.47;100.00
29839;BME280;18669;53.356;-1.464;2023-01-01T11:54:32;99497.56;;;8.59;100.00
29839;BME280;18669;53.356;-1.464;2023-01-01T11:57:11;99498.66;;;8.51;100.00
29839;BME280;18669;53.356;-1.464;2023-01-01T11:59:46;99498.84;;;8.45;100.00
29839;BME280;18669;53.356;-1.464;2023-01-01T12:02:19;99494.44;;;8.46;100.00
29839;BME280;18669;53.356;-1.464;2023-01-01T12:04:57;99484.63;;;8.53;100.00
29839;BME280;18669;53.356;-1.464;2023-01-01T12:07:31;99483.72;;;8.54;100.00
29839;BME280;18669;53.356;-1.464;2023-01-01T12:10:03;99483.91;;;8.77;100.00
29839;BME280;18669;53.356;-1.464;2023-01-01T12:12:52;99471.34;;;8.87;100.00
29839;BME280;18669;53.356;-1.464;2023-01-01T12:15:26;99487.81;;;8.91;100.00
29839;BME280;18669;53.356;-1.464;2023-01-01T12:18:15;99495.94;;;9.10;100.00
29839;BME280;18669;53.356;-1.464;2023-01-01T12:21:06;99489.66;;;9.16;100.00
29839;BME280;18669;53.356;-1.464;2023-01-01T12:23:34;99472.59;;;9.02;100.00
29839;BME280;18669;53.356;-1.464;2023-01-01T12:29:24;99481.84;;;9.14;100.00
29839;BME280;18669;53.356;-1.464;2023-01-01T12:32:13;99485.38;;;9.13;100.00
29839;BME280;18669;53.356;-1.464;2023-01-01T12:42:39;99483.63;;;9.14;100.00
29839;BME280;18669;53.356;-1.464;2023-01-01T12:45:45;99485.91;;;9.23;100.00
29839;BME280;18669;53.356;-1.464;2023-01-01T13:00:18;99474.03;;;9.38;100.00
29839;BME280;18669;53.356;-1.464;2023-01-01T13:02:52;99467.94;;;9.37;100.00
29839;BME280;18669;53.356;-1.464;2023-01-01T13:05:26;99467.13;;;9.35;100.00
29839;BME280;18669;53.356;-1.464;2023-01-01T13:07:58;99458.28;;;9.38;100.00
29839;BME280;18669;53.356;-1.464;2023-01-01T13:10:28;99455.78;;;9.35;100.00
29839;BME280;18669;53.356;-1.464;2023-01-01T13:12:55;99469.69;;;9.37;100.00
29839;BME280;18669;53.356;-1.464;2023-01-01T13:15:51;99470.25;;;9.47;100.00
29839;BME280;18669;53.356;-1.464;2023-01-01T13:18:21;99475.63;;;9.42;100.00
29839;BME280;18669;53.356;-1.464;2023-01-01T13:26:30;99486.91;;;9.46;100.00
29839;BME280;18669;53.356;-1.464;2023-01-01T13:34:31;99496.44;;;9.48;100.00
29839;BME280;18669;53.356;-1.464;2023-01-01T13:45:21;99512.63;;;9.61;100.00
29839;BME280;18669;53.356;-1.464;2023-01-01T13:53:47;99507.97;;;9.69;100.00
29839;BME280;18669;53.356;-1.464;2023-01-01T13:56:25;99509.44;;;9.53;100.00
29839;BME280;18669;53.356;-1.464;2023-01-01T14:15:52;99509.72;;;9.44;100.00
29839;BME280;18669;53.356;-1.464;2023-01-01T14:18:21;99509.03;;;9.38;100.00
29839;BME280;18669;53.356;-1.464;2023-01-01T14:20:50;99513.25;;;9.43;100.00
29839;BME280;18669;53.356;-1.464;2023-01-01T14:25:48;99511.84;;;9.32;100.00
29839;BME280;18669;53.356;-1.464;2023-01-01T14:28:19;99517.75;;;9.39;100.00
29839;BME280;18669;53.356;-1.464;2023-01-01T14:30:48;99520.63;;;9.31;100.00
29839;BME280;18669;53.356;-1.464;2023-01-01T14:33:27;99526.50;;;9.39;100.00
29839;BME280;18669;53.356;-1.464;2023-01-01T14:35:59;99529.16;;;9.38;100.00
29839;BME280;18669;53.356;-1.464;2023-01-01T14:38:30;99524.72;;;9.40;100.00
29839;BME280;18669;53.356;-1.464;2023-01-01T14:41:23;99520.84;;;9.52;100.00
29839;BME280;18669;53.356;-1.464;2023-01-01T14:43:55;99514.16;;;9.42;100.00
29839;BME280;18669;53.356;-1.464;2023-01-01T14:46:24;99522.78;;;9.45;100.00
29839;BME280;18669;53.356;-1.464;2023-01-01T14:49:05;99525.63;;;9.39;100.00
29839;BME280;18669;53.356;-1.464;2023-01-01T14:51:33;99532.91;;;9.31;100.00